Ana Sayfa
METAR-TAF:

METAR-TAF

Havaalanları :

Sivas Nuri Demirağ Havalimanı

Sivas, Türkiye

Enlem: 39-45N, Boylam: 037-01E, yükseklik: 1285 m

Güncel hava durumu gözlemi

Rapor saat 08:50 UTC de 21 dakika önce yapıldı.
Rüzgar güney/güneydoğudan 12 kt
Sıcaklık 8°C
Nem 71%
Basınç 1010 hPa
Görüş mesafesi 10 km veya daha fazla
2500 ft yükseklikte parçalı çok bulutlu
7000 ft yükseklikte parçalı çok bulutlu

METAR: LTAR 280850Z 15012KT 9999 BKN025 BKN070 08/03 Q1010

Saat: 12:11 (09:11 UTC)

Tahmin

Rapor saat 07:40 UTC de 1 saat ve 31 dakika önce yapıldı.
Ayın 28'si saat 09 UTC'den ayın 28'si saat 18 UTC'ye kadar geçerli Tahmin
Rüzgar güney/güneydoğudan 18 kt
Görüş mesafesi 10 km veya daha fazla
1500 ft yükseklikte az bulutlu
2500 ft yükseklikte parçalı çok bulutlu
8000 ft yükseklikte parçalı çok bulutlu
hafif sağanak yağmurlar

TAF: LTAR 280740Z 2809/2818 15018KT 9999 -SHRA FEW015 BKN025 BKN080

4.000'den fazla havaalanı için hava durumu gözlemleri ve tahminleri (METAR ve TAF raporları).

Kullanılabilir istasyonlar harita üzerinde sarı ve kırmızı noktalarla gösterilir.

İstasyonun adını görmek için fareyi noktanın üzerinde gezdirin.

Sonrasında hava gözlem ve tahminlerini görmek için tıklayın.

Haritayı değiştirmek için: yaklaştırmak için siyah artı işaretli yeşil düğmeye ve uzaklaştırmak için de eksi işaretli düğmeye hızla tıklayın; bitişik haritalar için yeşil okları kullanın.


METAR-TAF: